createdAt,value
2022-09-26T05:55:14.165Z,99994.78
2022-09-26T05:58:19.907Z,99993.66
2022-09-26T06:01:13.342Z,99995.88
2022-09-26T06:03:46.331Z,99994.16
2022-09-26T06:06:22.340Z,99992.06
2022-09-26T06:09:03.342Z,99992.47
2022-09-26T06:11:49.749Z,99987.09
2022-09-26T06:14:21.180Z,99981.25
2022-09-26T06:16:57.320Z,99980.53
2022-09-26T06:19:28.585Z,99973.78
2022-09-26T06:21:59.081Z,99980.59
2022-09-26T06:24:32.167Z,99972.75
2022-09-26T06:27:04.513Z,99981.00
2022-09-26T06:29:32.614Z,99967.41
2022-09-26T06:32:08.085Z,99971.59
2022-09-26T06:34:59.282Z,99976.59
2022-09-26T06:38:05.546Z,99980.22
2022-09-26T06:40:39.992Z,99980.41
2022-09-26T06:43:10.850Z,99981.59
2022-09-26T06:46:04.580Z,99978.38
2022-09-26T06:48:48.451Z,99991.16
2022-09-26T06:51:49.630Z,99997.38
2022-09-26T06:54:27.450Z,99999.66
2022-09-26T06:56:58.208Z,100016.19
2022-09-26T06:59:31.562Z,100019.94
2022-09-26T07:02:17.053Z,100024.06
2022-09-26T07:05:08.586Z,100020.09
2022-09-26T07:07:42.480Z,100014.44
2022-09-26T07:10:18.913Z,100019.03
2022-09-26T07:13:11.069Z,100023.47
2022-09-26T07:15:54.371Z,100015.66
2022-09-26T07:18:51.628Z,100012.19
2022-09-26T07:21:54.191Z,100008.50
2022-09-26T07:24:40.069Z,100017.66
2022-09-26T07:27:11.562Z,100016.38
2022-09-26T07:29:40.064Z,100012.44
2022-09-26T07:32:12.144Z,100007.34
2022-09-26T07:35:03.716Z,100005.09
2022-09-26T07:37:34.978Z,100015.34
2022-09-26T07:40:09.821Z,100011.84
2022-09-26T07:42:50.669Z,100008.81
2022-09-26T07:45:51.059Z,100014.88
2022-09-26T07:48:40.331Z,100012.28
2022-09-26T07:51:31.925Z,100022.84
2022-09-26T07:54:09.651Z,100025.09
2022-09-26T07:57:15.825Z,100021.56
2022-09-26T07:59:55.994Z,100017.03
2022-09-26T08:02:53.019Z,100015.97
2022-09-26T08:05:24.455Z,100018.66
2022-09-26T08:07:58.856Z,100015.16
2022-09-26T08:10:51.013Z,100019.69
2022-09-26T08:13:40.139Z,100018.34
2022-09-26T08:16:42.561Z,100017.06
2022-09-26T08:19:20.289Z,100018.28
2022-09-26T08:22:00.002Z,100017.69
2022-09-26T08:24:36.262Z,100020.75
2022-09-26T08:27:34.728Z,100016.38
2022-09-26T08:30:07.762Z,100020.88
2022-09-26T08:32:39.858Z,100026.38
2022-09-26T08:35:15.212Z,100023.84
2022-09-26T08:38:27.530Z,100022.91
2022-09-26T08:41:54.216Z,100021.88
2022-09-26T08:45:46.667Z,100027.78
2022-09-26T08:49:04.983Z,100027.16
2022-09-26T08:51:49.773Z,100031.91
2022-09-26T08:54:42.868Z,100029.50
2022-09-26T08:57:40.298Z,100025.38
2022-09-26T09:00:27.593Z,100029.19
2022-09-26T09:03:38.015Z,100031.38
2022-09-26T09:06:16.125Z,100029.69
2022-09-26T09:08:54.604Z,100028.94
2022-09-26T09:11:58.228Z,100017.41
2022-09-26T09:15:23.600Z,100015.28
2022-09-26T09:18:29.700Z,100026.53
2022-09-26T09:21:51.563Z,100026.19
2022-09-26T09:25:06.831Z,100030.50
2022-09-26T09:28:10.314Z,100022.97
2022-09-26T09:30:50.908Z,100011.84
2022-09-26T09:33:54.688Z,100017.88
2022-09-26T09:36:51.809Z,100012.78
2022-09-26T09:39:40.911Z,100015.97
2022-09-26T09:42:53.788Z,100015.81
2022-09-26T09:45:36.603Z,100002.88
2022-09-26T09:48:15.044Z,100001.47
2022-09-26T09:50:46.075Z,99995.38
2022-09-26T09:53:39.602Z,100000.34
2022-09-26T09:56:45.733Z,99996.25
2022-09-26T09:59:33.922Z,99987.31
2022-09-26T10:03:01.366Z,99975.75
2022-09-26T10:05:45.792Z,99988.00
2022-09-26T10:08:41.903Z,99988.63
2022-09-26T10:11:26.512Z,99987.88
2022-09-26T10:14:06.362Z,99981.69
2022-09-26T10:21:42.761Z,99973.47
2022-09-26T10:24:34.473Z,99979.59
2022-09-26T10:27:40.109Z,99980.91
2022-09-26T10:30:33.239Z,99977.22
2022-09-26T10:33:31.283Z,99972.81
2022-09-26T10:36:45.703Z,99967.22
2022-09-26T10:39:43.685Z,99968.56
2022-09-26T10:42:32.463Z,99959.19
2022-09-26T10:45:35.363Z,99948.88
2022-09-26T10:48:57.224Z,99960.84
2022-09-26T10:51:57.187Z,99959.75
2022-09-26T10:54:41.362Z,99961.31
2022-09-26T10:57:23.212Z,99954.16
2022-09-26T11:00:00.802Z,99957.91
2022-09-26T11:02:38.447Z,99958.09
2022-09-26T11:05:30.827Z,99952.00
2022-09-26T11:08:14.328Z,99950.22
2022-09-26T11:11:12.773Z,99963.56
2022-09-26T11:14:08.948Z,99946.25
2022-09-26T11:16:59.666Z,99944.69
2022-09-26T11:19:40.129Z,99948.81
2022-09-26T11:22:43.607Z,99946.44
2022-09-26T11:25:25.786Z,99936.75
2022-09-26T11:28:12.653Z,99935.19
2022-09-26T11:31:13.329Z,99930.75
2022-09-26T11:33:52.062Z,99929.19
2022-09-26T11:37:09.712Z,99920.56
2022-09-26T11:40:09.238Z,99912.97
2022-09-26T11:43:08.987Z,99914.91
2022-09-26T11:46:04.405Z,99896.00
2022-09-26T11:49:03.890Z,99896.81
2022-09-26T11:52:20.513Z,99893.88
2022-09-26T11:55:19.401Z,99883.66
2022-09-26T11:58:07.986Z,99890.44
2022-09-26T12:01:00.536Z,99875.38
2022-09-26T12:04:07.764Z,99867.41
2022-09-26T12:06:56.450Z,99862.63
2022-09-26T12:09:52.093Z,99858.16
2022-09-26T12:12:44.071Z,99851.31
2022-09-26T12:15:44.604Z,99849.28
2022-09-26T12:18:24.316Z,99844.22
2022-09-26T12:21:05.290Z,99848.41
2022-09-26T12:23:41.285Z,99840.09
2022-09-26T12:26:34.917Z,99830.84
2022-09-26T12:29:26.815Z,99826.63
2022-09-26T12:32:17.839Z,99816.91
2022-09-26T12:35:19.848Z,99822.69
2022-09-26T12:38:08.982Z,99814.13
2022-09-26T12:40:53.659Z,99800.72
2022-09-26T12:44:04.431Z,99799.84
2022-09-26T12:46:50.493Z,99791.34
2022-09-26T12:49:34.603Z,99795.47
2022-09-26T12:52:27.878Z,99787.66
2022-09-26T12:55:29.986Z,99786.84
2022-09-26T12:58:29.244Z,99782.97
2022-09-26T13:01:24.742Z,99781.44
2022-09-26T13:04:21.047Z,99779.69
2022-09-26T13:07:20.779Z,99772.50
2022-09-26T13:10:33.830Z,99764.94
2022-09-26T13:13:31.651Z,99759.09
2022-09-26T13:16:20.896Z,99761.50
2022-09-26T13:18:56.271Z,99761.56
2022-09-26T13:21:34.897Z,99762.34
2022-09-26T13:24:19.475Z,99756.31
2022-09-26T13:26:55.892Z,99753.66
2022-09-26T13:29:37.614Z,99750.47
2022-09-26T13:32:23.863Z,99751.50
2022-09-26T13:35:13.360Z,99738.88
2022-09-26T13:38:27.601Z,99733.56
2022-09-26T13:41:06.925Z,99730.88
2022-09-26T13:44:07.952Z,99741.41
2022-09-26T13:46:55.008Z,99746.63
2022-09-26T13:50:08.577Z,99732.97
2022-09-26T13:52:52.617Z,99735.50
2022-09-26T13:55:30.095Z,99721.19
2022-09-26T13:58:04.993Z,99727.16
2022-09-26T14:00:49.505Z,99713.72
2022-09-26T14:03:17.724Z,99716.16
2022-09-26T14:05:55.230Z,99702.84
2022-09-26T14:08:42.884Z,99704.94
2022-09-26T14:11:19.923Z,99707.47
2022-09-26T14:14:07.789Z,99702.56
2022-09-26T14:16:41.352Z,99703.00
2022-09-26T14:19:33.287Z,99700.88
2022-09-26T14:22:24.769Z,99701.31
2022-09-26T14:25:02.788Z,99703.69
2022-09-26T14:27:42.594Z,99693.88
2022-09-26T14:30:19.103Z,99687.75
2022-09-26T14:32:47.294Z,99684.88
2022-09-26T14:35:32.976Z,99676.78
2022-09-26T14:38:17.577Z,99682.44
2022-09-26T14:41:00.765Z,99669.56
2022-09-26T14:43:38.683Z,99681.66
2022-09-26T14:46:20.145Z,99675.88
2022-09-26T14:49:08.950Z,99674.84
2022-09-26T14:51:48.858Z,99680.66
2022-09-26T14:54:38.930Z,99677.22
2022-09-26T14:57:21.082Z,99675.81
2022-09-26T14:59:54.998Z,99666.59
2022-09-26T15:02:57.513Z,99674.13
2022-09-26T15:05:38.624Z,99665.69
2022-09-26T15:08:23.998Z,99675.09
2022-09-26T15:10:57.585Z,99668.69
2022-09-26T15:17:00.715Z,99663.28
2022-09-26T15:19:40.985Z,99663.06
2022-09-26T15:22:19.092Z,99661.38
2022-09-26T15:24:52.832Z,99650.75
2022-09-26T15:27:31.852Z,99656.88
2022-09-26T15:30:17.052Z,99659.78
2022-09-26T15:33:03.431Z,99653.28
2022-09-26T15:35:40.138Z,99654.75
2022-09-26T15:38:16.441Z,99651.25
2022-09-26T15:40:59.323Z,99645.97
2022-09-26T15:43:34.920Z,99652.81
2022-09-26T15:46:24.235Z,99650.78
2022-09-26T15:48:52.200Z,99643.53
2022-09-26T15:51:37.853Z,99643.03
2022-09-26T15:54:20.327Z,99653.78
2022-09-26T15:57:01.921Z,99645.53
2022-09-26T15:59:41.483Z,99649.94
2022-09-26T16:02:33.155Z,99655.69
2022-09-26T16:05:14.794Z,99651.25
2022-09-26T16:07:56.376Z,99650.44
2022-09-26T16:10:37.312Z,99644.25
2022-09-26T16:13:10.092Z,99652.19
2022-09-26T16:15:52.149Z,99654.38
2022-09-26T16:18:44.468Z,99663.75
2022-09-26T16:21:34.239Z,99664.53
2022-09-26T16:24:34.486Z,99660.78
2022-09-26T16:27:26.975Z,99656.88
2022-09-26T16:30:21.740Z,99660.56
2022-09-26T16:33:21.826Z,99658.56
2022-09-26T16:35:52.185Z,99653.78
2022-09-26T16:38:42.365Z,99653.78
2022-09-26T16:42:00.595Z,99655.53
2022-09-26T16:44:50.124Z,99657.56
2022-09-26T16:47:43.341Z,99655.44
2022-09-26T16:50:36.206Z,99653.47
2022-09-26T16:53:13.658Z,99649.41
2022-09-26T16:55:46.607Z,99644.19
2022-09-26T16:58:17.975Z,99649.41
2022-09-26T17:01:07.542Z,99648.22
2022-09-26T17:03:37.298Z,99652.16
2022-09-26T17:06:08.097Z,99653.81
2022-09-26T17:08:38.820Z,99652.38
2022-09-26T17:11:15.209Z,99658.56
2022-09-26T17:13:49.585Z,99658.72
2022-09-26T17:16:22.153Z,99657.91
2022-09-26T17:18:50.062Z,99660.38
2022-09-26T17:21:20.713Z,99661.63
2022-09-26T17:23:51.284Z,99658.78
2022-09-26T17:26:23.674Z,99656.75
2022-09-26T17:29:01.120Z,99653.16
2022-09-26T17:31:29.007Z,99653.56
2022-09-26T17:34:04.696Z,99651.66
2022-09-26T17:36:33.212Z,99654.47
2022-09-26T17:39:15.623Z,99652.94
2022-09-26T17:41:44.087Z,99644.06
2022-09-26T17:44:14.281Z,99640.88
2022-09-26T17:46:48.257Z,99639.16
2022-09-26T17:49:36.879Z,99640.72
2022-09-26T17:52:15.448Z,99644.81
2022-09-26T17:54:45.648Z,99641.19
2022-09-26T17:57:17.207Z,99642.41
2022-09-26T17:59:48.671Z,99642.78
2022-09-26T18:02:31.010Z,99641.19
2022-09-26T18:05:03.939Z,99636.38
2022-09-26T18:07:36.845Z,99641.69
2022-09-26T18:10:07.760Z,99637.59
2022-09-26T18:12:36.589Z,99643.00
2022-09-26T18:15:21.306Z,99645.88
2022-09-26T18:17:50.180Z,99645.00
2022-09-26T18:20:19.901Z,99632.00
2022-09-26T18:22:52.152Z,99638.47
2022-09-26T18:25:23.244Z,99638.06
2022-09-26T18:27:56.775Z,99638.84
2022-09-26T18:30:24.503Z,99635.16
2022-09-26T18:32:59.193Z,99631.66
2022-09-26T18:35:32.467Z,99631.59
2022-09-26T18:38:03.334Z,99631.22
2022-09-26T18:40:41.351Z,99628.44
2022-09-26T18:43:19.869Z,99624.75
2022-09-26T18:45:48.117Z,99624.31
2022-09-26T18:48:36.387Z,99638.28
2022-09-26T18:51:03.973Z,99635.13
2022-09-26T18:53:37.480Z,99638.63
2022-09-26T18:56:29.871Z,99635.06
2022-09-26T18:59:00.188Z,99634.53
2022-09-26T19:01:34.382Z,99636.66
2022-09-26T19:04:26.228Z,99641.09
2022-09-26T19:07:01.066Z,99634.69
2022-09-26T19:09:35.199Z,99647.63
2022-09-26T19:12:05.596Z,99639.19
2022-09-26T19:14:36.556Z,99637.09
2022-09-26T19:17:07.521Z,99641.59
2022-09-26T19:19:35.093Z,99631.91
2022-09-26T19:22:10.275Z,99634.75
2022-09-26T19:24:49.993Z,99637.97
2022-09-26T19:27:22.520Z,99631.13
2022-09-26T19:30:04.615Z,99629.81
2022-09-26T19:32:33.936Z,99629.88
2022-09-26T19:35:25.037Z,99626.63
2022-09-26T19:37:56.116Z,99614.44
2022-09-26T19:40:24.899Z,99611.59
2022-09-26T19:42:58.099Z,99600.44
2022-09-26T19:45:32.332Z,99599.25
2022-09-26T19:48:00.886Z,99598.88
2022-09-26T19:50:35.760Z,99601.56
2022-09-26T19:53:12.607Z,99596.78
2022-09-26T19:55:43.153Z,99594.81
2022-09-26T19:58:25.572Z,99592.66
2022-09-26T20:00:55.951Z,99588.22
2022-09-26T20:03:29.535Z,99589.03
2022-09-26T20:06:02.774Z,99587.84
2022-09-26T20:08:30.411Z,99600.34
2022-09-26T20:11:03.979Z,99598.38
2022-09-26T20:13:54.652Z,99595.13
2022-09-26T20:16:23.895Z,99593.59
2022-09-26T20:18:51.882Z,99581.91
2022-09-26T20:21:24.789Z,99580.22
2022-09-26T20:24:00.694Z,99582.19
2022-09-26T20:26:33.398Z,99584.56
2022-09-26T20:29:01.647Z,99580.16
2022-09-26T20:31:32.431Z,99570.94
2022-09-26T20:34:03.480Z,99568.47
2022-09-26T20:36:35.946Z,99574.50
2022-09-26T20:39:13.174Z,99570.88
2022-09-26T20:41:42.214Z,99574.50
2022-09-26T20:44:15.350Z,99575.44
2022-09-26T20:46:59.576Z,99582.75
2022-09-26T20:49:35.132Z,99574.50
2022-09-26T20:52:15.597Z,99573.69
2022-09-26T20:54:45.593Z,99565.78
2022-09-26T20:57:17.200Z,99561.66
2022-09-26T20:59:45.542Z,99555.53
2022-09-26T21:02:31.060Z,99557.13
2022-09-26T21:05:04.529Z,99558.31
2022-09-26T21:07:35.124Z,99560.03
2022-09-26T21:10:29.835Z,99552.91
2022-09-26T21:13:01.283Z,99556.78
2022-09-26T21:15:33.477Z,99574.28
2022-09-26T21:18:02.217Z,99596.97
2022-09-26T21:20:35.663Z,99614.97
2022-09-26T21:23:28.920Z,99632.91
2022-09-26T21:25:59.441Z,99633.81
2022-09-26T21:28:35.438Z,99642.59
2022-09-26T21:31:09.549Z,99632.75
2022-09-26T21:33:40.646Z,99639.84
2022-09-26T21:36:09.055Z,99626.28
2022-09-26T21:38:39.561Z,99629.69
2022-09-26T21:41:12.573Z,99617.66
2022-09-26T21:43:53.120Z,99598.88
2022-09-26T21:46:25.901Z,99587.44
2022-09-26T21:48:54.109Z,99584.59
2022-09-26T21:51:23.751Z,99577.94
2022-09-26T21:54:07.974Z,99564.84
2022-09-26T21:56:50.167Z,99551.31
2022-09-26T21:59:23.715Z,99549.06
2022-09-26T22:01:54.675Z,99546.13
2022-09-26T22:04:28.032Z,99549.66
2022-09-26T22:06:58.009Z,99550.56
2022-09-26T22:09:25.784Z,99546.88
2022-09-26T22:11:56.199Z,99542.41
2022-09-26T22:14:26.712Z,99532.16
2022-09-26T22:16:55.579Z,99521.97
2022-09-26T22:19:24.108Z,99519.94
2022-09-26T22:21:51.507Z,99515.00
2022-09-26T22:24:19.514Z,99516.03
2022-09-26T22:26:49.134Z,99503.13
2022-09-26T22:29:19.495Z,99500.56
2022-09-26T22:31:50.154Z,99492.47
2022-09-26T22:34:22.732Z,99493.03
2022-09-26T22:36:50.402Z,99483.00
2022-09-26T22:39:20.305Z,99485.91
2022-09-26T22:41:50.488Z,99476.63
2022-09-26T22:44:23.399Z,99478.31
2022-09-26T22:46:53.851Z,99463.41
2022-09-26T22:49:26.904Z,99465.75
2022-09-26T22:51:54.690Z,99459.09
2022-09-26T22:54:22.589Z,99449.00
2022-09-26T22:56:55.239Z,99452.00
2022-09-26T22:59:22.821Z,99456.38
2022-09-26T23:01:53.183Z,99456.94
2022-09-26T23:04:46.310Z,99442.78
2022-09-26T23:07:16.388Z,99446.06
2022-09-26T23:09:44.410Z,99443.41
2022-09-26T23:12:15.504Z,99443.06
2022-09-26T23:14:45.764Z,99436.56
2022-09-26T23:17:13.925Z,99433.59
2022-09-26T23:19:41.960Z,99426.06
2022-09-26T23:22:09.575Z,99425.81
2022-09-26T23:24:36.995Z,99429.13
2022-09-26T23:27:04.376Z,99419.22
2022-09-26T23:29:34.537Z,99416.75
2022-09-26T23:32:04.423Z,99412.03
2022-09-26T23:34:38.167Z,99408.03
2022-09-26T23:37:05.622Z,99405.28
2022-09-26T23:39:33.793Z,99394.03
2022-09-26T23:42:04.116Z,99390.34
2022-09-26T23:44:36.497Z,99388.84
2022-09-26T23:47:05.446Z,99388.38
2022-09-26T23:49:36.004Z,99395.63
2022-09-26T23:52:03.792Z,99400.50
2022-09-26T23:54:31.349Z,99399.34
2022-09-26T23:57:03.027Z,99396.97
2022-09-26T23:59:33.459Z,99397.34
